Rea, Missouri
Current Conditions -  °F | °C
As of 1:53 PM on Wednesday 26 Nov 2014 (Local Time) from KSTJ Reporting Station
Overcast Overcast  
Wind Chill: 23°   Ceiling: 1700
Heat Index: 36°   Visibility: 10mi
Dew Point: 29°   Wind: 28mph
Humidity: 76%   Direction: 330°NNW
Pressure: 30.06"   Gusts: 33mph
Location:  40.06°N, 94.76°W
Report Text: KSTJ 261953Z 33024G29KT 10SM OVC017 02/M02 A3006 RMK AO2 PK WND 33029/1948 SLP185 T00221017
Loading
Personal Weather Stations






























Interactive Weather Map New forecast layout! Learn more

10-Day Weather Forecast

Advertisements
Track Severe Weather on mobile